Time;durP1;ratioP1;P1;durP2;ratioP2;P2;SDS_P1;SDS_P2;PMS_P1;PMS_P2;Temp;Humidity;BMP_temperature;BMP_pressure;BME280_temperature;BME280_humidity;BME280_pressure;Samples;Min_cycle;Max_cycle;Signal;HPM_P1;HPM_P2
2022/06/25 00:01:22;;;;;;;403.17;321.20;;;;;;;17.68;100.00;98997.72;5094820;28;20613;-82
2022/06/25 00:03:49;;;;;;;401.30;304.83;;;;;;;17.86;100.00;99003.28;5094260;28;20190;-81
2022/06/25 00:06:16;;;;;;;404.63;318.35;;;;;;;17.81;100.00;99003.72;5095040;28;20284;-82
2022/06/25 00:08:44;;;;;;;402.85;316.77;;;;;;;17.75;100.00;99009.75;5094457;28;20197;-82
2022/06/25 00:12:31;;;;;;;406.00;326.30;;;;;;;17.77;100.00;99006.88;5094082;28;20190;-82
2022/06/25 00:13:58;;;;;;;399.83;300.23;;;;;;;17.76;100.00;99018.78;5094054;28;20203;-82
2022/06/25 00:16:26;;;;;;;401.27;307.35;;;;;;;17.75;100.00;99011.59;5094623;28;20182;-82
2022/06/25 00:18:53;;;;;;;405.55;324.15;;;;;;;17.74;100.00;99015.34;5093556;28;20183;-82
2022/06/25 00:21:20;;;;;;;406.60;317.73;;;;;;;17.75;100.00;99017.03;5094462;28;20199;-81
2022/06/25 00:23:47;;;;;;;403.50;317.75;;;;;;;17.77;100.00;99021.31;5093735;28;20182;-82
2022/06/25 00:26:13;;;;;;;413.98;327.50;;;;;;;17.65;100.00;99017.94;5093590;28;20200;-81
2022/06/25 00:28:40;;;;;;;403.15;317.60;;;;;;;17.69;100.00;99019.38;5093704;28;20330;-82
2022/06/25 00:31:06;;;;;;;404.58;323.77;;;;;;;17.74;100.00;99018.91;5094316;28;20296;-82
2022/06/25 00:33:34;;;;;;;402.75;319.67;;;;;;;17.74;100.00;99020.78;5094022;28;20724;-81
2022/06/25 00:36:01;;;;;;;418.23;331.50;;;;;;;17.76;100.00;99025.06;5093488;28;20283;-82
2022/06/25 00:38:28;;;;;;;407.35;324.10;;;;;;;17.83;100.00;99022.66;5094084;28;20273;-82
2022/06/25 00:40:54;;;;;;;405.45;323.30;;;;;;;17.78;100.00;99023.06;5093894;28;20289;-81
2022/06/25 00:43:21;;;;;;;407.67;328.95;;;;;;;17.68;100.00;99022.22;5093962;28;20617;-81
2022/06/25 00:45:48;;;;;;;409.20;329.42;;;;;;;17.62;100.00;99020.13;5093615;28;20214;-81
2022/06/25 00:48:14;;;;;;;404.50;319.77;;;;;;;17.46;100.00;99026.19;5093980;28;20203;-82
2022/06/25 00:50:42;;;;;;;406.63;322.33;;;;;;;17.36;100.00;99036.22;5093777;28;20692;-82
2022/06/25 00:53:10;;;;;;;404.02;319.50;;;;;;;17.43;100.00;99037.34;5093759;28;20799;-82
2022/06/25 00:55:39;;;;;;;404.23;321.70;;;;;;;17.48;100.00;99043.22;5092968;28;20317;-82
2022/06/25 00:58:10;;;;;;;400.20;308.15;;;;;;;17.57;100.00;99047.78;5073844;28;20193;-82
2022/06/25 01:00:37;;;;;;;403.92;320.05;;;;;;;17.71;100.00;99041.00;5073003;28;20185;-82
2022/06/25 01:03:04;;;;;;;402.85;312.60;;;;;;;17.67;100.00;99037.72;5072769;28;20289;-82
2022/06/25 01:05:31;;;;;;;402.30;315.77;;;;;;;17.66;100.00;99046.91;5091629;28;20199;-83
2022/06/25 01:07:59;;;;;;;403.27;316.30;;;;;;;17.62;100.00;99052.78;5092985;28;20205;-82
2022/06/25 01:10:26;;;;;;;403.30;316.90;;;;;;;17.64;100.00;99050.78;5092655;28;20591;-82
2022/06/25 01:12:53;;;;;;;402.13;319.25;;;;;;;17.58;100.00;99065.81;5093262;28;20231;-82
2022/06/25 01:15:20;;;;;;;404.92;314.20;;;;;;;17.60;100.00;99071.97;5093858;28;20191;-83
2022/06/25 01:17:49;;;;;;;402.08;310.23;;;;;;;17.63;100.00;99058.06;5093603;28;20207;-82
2022/06/25 01:20:19;;;;;;;403.02;322.33;;;;;;;17.70;100.00;99052.88;5094510;28;20244;-82
2022/06/25 01:22:47;;;;;;;411.30;322.33;;;;;;;17.69;100.00;99060.19;5092889;28;20274;-82
2022/06/25 01:25:15;;;;;;;405.15;317.48;;;;;;;17.74;100.00;99061.63;5093057;28;20298;-81
2022/06/25 01:27:42;;;;;;;404.15;316.83;;;;;;;17.81;100.00;99060.03;5093127;28;20217;-82
2022/06/25 01:30:10;;;;;;;405.90;317.40;;;;;;;17.81;100.00;99054.56;5092646;28;20281;-82
2022/06/25 01:32:37;;;;;;;404.55;320.60;;;;;;;17.71;100.00;99057.34;5092916;28;20282;-82
2022/06/25 01:35:05;;;;;;;396.70;292.17;;;;;;;17.62;100.00;99055.50;5092259;28;20286;-82
2022/06/25 01:37:32;;;;;;;401.75;317.00;;;;;;;17.66;100.00;99063.22;5092773;28;20229;-81
2022/06/25 01:40:00;;;;;;;404.80;314.17;;;;;;;17.62;100.00;99059.06;5092898;28;20195;-82
2022/06/25 01:45:12;;;;;;;399.42;308.77;;;;;;;17.61;100.00;99076.41;5092784;28;20185;-82
2022/06/25 01:47:40;;;;;;;401.05;302.88;;;;;;;17.43;100.00;99072.72;5092451;28;20193;-82
2022/06/25 01:50:08;;;;;;;406.67;314.00;;;;;;;17.44;100.00;99082.63;5092641;28;20230;-82
2022/06/25 01:52:34;;;;;;;404.70;311.92;;;;;;;17.44;100.00;99080.75;5092025;28;20298;-82
2022/06/25 01:55:03;;;;;;;408.17;318.98;;;;;;;17.33;100.00;99082.78;5092455;28;20309;-81
2022/06/25 01:57:30;;;;;;;405.75;305.08;;;;;;;17.44;100.00;99082.63;5092488;28;20195;-82
2022/06/25 01:59:57;;;;;;;399.75;307.63;;;;;;;17.60;100.00;99080.13;5092398;28;20231;-81
2022/06/25 02:02:23;;;;;;;397.42;302.40;;;;;;;17.84;100.00;99062.47;5092593;28;20266;-81
2022/06/25 02:04:50;;;;;;;402.15;308.05;;;;;;;17.76;100.00;99062.34;5092189;28;20290;-82
2022/06/25 02:07:17;;;;;;;400.45;302.83;;;;;;;17.81;100.00;99062.75;5092745;28;20188;-82
2022/06/25 02:09:43;;;;;;;396.63;298.45;;;;;;;17.80;100.00;99069.22;5093923;28;20293;-82
2022/06/25 02:12:11;;;;;;;397.02;288.45;;;;;;;17.69;100.00;99062.91;5092823;28;20590;-82
2022/06/25 02:14:38;;;;;;;401.45;306.13;;;;;;;17.60;100.00;99074.69;5092545;28;20213;-82
2022/06/25 02:17:05;;;;;;;401.30;303.75;;;;;;;17.69;100.00;99062.91;5092767;28;20645;-81
2022/06/25 02:19:32;;;;;;;395.75;303.63;;;;;;;17.79;100.00;99067.47;5092125;28;20277;-82
2022/06/25 02:21:59;;;;;;;399.48;309.83;;;;;;;17.85;100.00;99070.50;5092340;28;20615;-82
2022/06/25 02:24:25;;;;;;;400.17;296.40;;;;;;;17.87;100.00;99067.63;5092338;28;20673;-82
2022/06/25 02:26:52;;;;;;;399.85;309.83;;;;;;;17.70;100.00;99070.09;5092141;28;20290;-82
2022/06/25 02:29:20;;;;;;;404.45;316.38;;;;;;;17.60;100.00;99069.25;5091423;28;20282;-82
2022/06/25 02:31:47;;;;;;;402.63;311.33;;;;;;;17.60;100.00;99063.81;5092113;28;20192;-81
2022/06/25 02:34:13;;;;;;;401.73;308.77;;;;;;;17.47;100.00;99064.13;5092105;28;20656;-81
2022/06/25 02:36:40;;;;;;;401.27;308.90;;;;;;;17.46;100.00;99056.13;5091718;28;20294;-81
2022/06/25 02:39:07;;;;;;;401.33;306.70;;;;;;;17.47;100.00;99069.56;5091172;28;20284;-81
2022/06/25 02:41:33;;;;;;;403.05;313.25;;;;;;;17.40;100.00;99067.56;5091541;28;20294;-81
2022/06/25 02:44:00;;;;;;;405.08;312.05;;;;;;;17.28;100.00;99067.72;5091431;28;20273;-81
2022/06/25 02:46:28;;;;;;;399.40;300.23;;;;;;;17.23;100.00;99070.03;5091978;28;20201;-81
2022/06/25 02:48:54;;;;;;;403.52;306.42;;;;;;;17.25;100.00;99065.31;5095642;28;20281;-82
2022/06/25 02:51:21;;;;;;;402.00;306.45;;;;;;;17.27;100.00;99068.72;5096178;28;20287;-81
2022/06/25 02:53:48;;;;;;;400.83;303.25;;;;;;;17.21;100.00;99071.19;5095126;28;20205;-81
2022/06/25 02:58:58;;;;;;;398.55;295.13;;;;;;;17.18;100.00;99071.47;5095677;28;20230;-82
2022/06/25 03:01:26;;;;;;;407.08;306.83;;;;;;;17.13;100.00;99077.34;5095805;28;20270;-82
2022/06/25 03:03:55;;;;;;;401.48;297.92;;;;;;;17.14;100.00;99072.75;5095216;28;20274;-82
2022/06/25 03:06:23;;;;;;;401.17;296.77;;;;;;;17.10;100.00;99080.34;5095391;28;20202;-81
2022/06/25 03:08:50;;;;;;;406.08;305.88;;;;;;;17.20;100.00;99085.78;5094652;28;20281;-81
2022/06/25 03:11:18;;;;;;;401.38;306.65;;;;;;;17.46;100.00;99077.88;5095703;28;20194;-81
2022/06/25 03:13:44;;;;;;;399.98;297.77;;;;;;;17.56;100.00;99077.84;5095312;28;20215;-81
2022/06/25 03:16:11;;;;;;;396.52;298.92;;;;;;;17.44;100.00;99064.41;5095307;28;20274;-82
2022/06/25 03:18:39;;;;;;;398.98;301.60;;;;;;;17.39;100.00;99063.13;5095793;28;20264;-82
2022/06/25 03:21:07;;;;;;;404.08;302.98;;;;;;;17.53;100.00;99068.13;5095487;28;20656;-81
2022/06/25 03:23:33;;;;;;;401.02;304.42;;;;;;;17.48;100.00;99065.84;5095266;28;20305;-82
2022/06/25 03:26:00;;;;;;;405.77;313.85;;;;;;;17.40;100.00;99073.03;5095185;28;20198;-82
2022/06/25 03:28:27;;;;;;;402.33;297.40;;;;;;;17.44;100.00;99075.31;5095263;28;20624;-81
2022/06/25 03:30:53;;;;;;;402.80;306.50;;;;;;;17.53;100.00;99073.56;5094930;28;20649;-80
2022/06/25 03:33:20;;;;;;;401.83;303.05;;;;;;;17.58;100.00;99081.28;5094405;28;20188;-82
2022/06/25 03:35:47;;;;;;;398.30;295.75;;;;;;;17.59;100.00;99083.00;5094760;28;20206;-81
2022/06/25 03:38:15;;;;;;;403.67;297.45;;;;;;;17.61;100.00;99090.00;5094809;28;20319;-81
2022/06/25 03:40:41;;;;;;;407.10;298.30;;;;;;;17.64;100.00;99099.78;5095163;28;20195;-81
2022/06/25 03:43:08;;;;;;;407.63;306.73;;;;;;;17.63;100.00;99092.59;5095118;28;20270;-81
2022/06/25 03:45:35;;;;;;;398.48;287.17;;;;;;;17.57;100.00;99099.50;5094718;28;20278;-81
2022/06/25 03:48:01;;;;;;;397.50;283.65;;;;;;;17.68;100.00;99096.59;5094649;28;20278;-82
2022/06/25 03:50:28;;;;;;;400.77;297.42;;;;;;;17.75;100.00;99099.59;5094893;28;20286;-81
2022/06/25 03:52:55;;;;;;;398.35;297.23;;;;;;;17.70;100.00;99097.31;5094476;28;20183;-81
2022/06/25 03:55:23;;;;;;;396.63;289.90;;;;;;;17.56;100.00;99099.63;5094386;28;20325;-81
2022/06/25 03:57:49;;;;;;;410.90;306.80;;;;;;;17.47;100.00;99091.31;5091439;28;20286;-80
2022/06/25 04:00:17;;;;;;;399.75;300.67;;;;;;;17.56;100.00;99095.03;5073721;28;20294;-81
2022/06/25 04:02:43;;;;;;;401.67;305.20;;;;;;;17.47;100.00;99104.09;5080128;28;20610;-81
2022/06/25 04:05:10;;;;;;;404.15;309.13;;;;;;;17.41;100.00;99101.94;5093787;28;20205;-81
2022/06/25 04:07:36;;;;;;;402.33;301.45;;;;;;;17.33;100.00;99102.66;5093814;28;20277;-80
2022/06/25 04:10:04;;;;;;;402.40;300.13;;;;;;;17.24;100.00;99108.97;5092437;28;20203;-82
2022/06/25 04:12:32;;;;;;;400.70;298.98;;;;;;;17.20;100.00;99115.69;5093896;28;20534;-81
2022/06/25 04:14:59;;;;;;;402.33;305.27;;;;;;;17.22;100.00;99120.00;5094126;28;20298;-81
2022/06/25 04:17:25;;;;;;;405.05;314.27;;;;;;;17.29;100.00;99118.41;5094035;28;20766;-80
2022/06/25 04:19:52;;;;;;;402.02;306.95;;;;;;;17.27;100.00;99117.69;5093937;28;20296;-81
2022/06/25 04:22:19;;;;;;;402.00;303.90;;;;;;;17.28;100.00;99115.84;5094008;28;20684;-80
2022/06/25 04:24:45;;;;;;;403.02;309.17;;;;;;;17.32;100.00;99121.84;5092873;28;20277;-81
2022/06/25 04:29:03;;;;;;;408.30;303.52;;;;;;;17.19;100.00;99131.16;5094029;28;20243;-80
2022/06/25 04:29:59;;;;;;;394.65;290.80;;;;;;;17.15;100.00;99132.44;5073148;28;20209;-80
2022/06/25 04:32:25;;;;;;;399.02;301.45;;;;;;;17.16;100.00;99127.88;5074169;28;20185;-81
2022/06/25 04:34:52;;;;;;;404.92;307.70;;;;;;;17.23;100.00;99129.88;5093195;28;20243;-80
2022/06/25 04:37:19;;;;;;;399.98;305.83;;;;;;;17.28;100.00;99124.88;5093691;28;20294;-81
2022/06/25 04:39:46;;;;;;;403.05;296.48;;;;;;;17.38;100.00;99132.16;5093290;28;20244;-80
2022/06/25 04:42:12;;;;;;;401.52;300.95;;;;;;;17.42;100.00;99136.31;5093445;28;20191;-80
2022/06/25 04:44:39;;;;;;;402.25;308.27;;;;;;;17.50;100.00;99139.16;5092569;28;20278;-80
2022/06/25 04:47:09;;;;;;;402.48;306.75;;;;;;;17.64;100.00;99125.13;5093409;28;20619;-80
2022/06/25 04:49:35;;;;;;;401.23;293.52;;;;;;;17.84;100.00;99130.53;5093375;28;20249;-80
2022/06/25 04:52:02;;;;;;;408.15;315.73;;;;;;;17.88;100.00;99124.66;5092817;28;20278;-80
2022/06/25 04:54:29;;;;;;;403.58;302.25;;;;;;;17.96;100.00;99113.03;5092859;28;20260;-81
2022/06/25 04:56:56;;;;;;;412.00;329.52;;;;;;;18.15;100.00;99112.09;5092194;28;20231;-81
2022/06/25 04:59:22;;;;;;;405.70;306.30;;;;;;;18.30;100.00;99112.47;5092533;28;20203;-81
2022/06/25 05:01:49;;;;;;;415.00;339.38;;;;;;;18.54;100.00;99114.66;5092574;28;20726;-80
2022/06/25 05:04:17;;;;;;;408.10;337.70;;;;;;;18.95;100.00;99115.16;5091942;28;20278;-80
2022/06/25 05:06:44;;;;;;;413.95;344.08;;;;;;;19.32;100.00;99111.41;5092633;28;20239;-81
2022/06/25 05:09:11;;;;;;;432.70;367.08;;;;;;;19.60;100.00;99117.59;5092349;28;20218;-80
2022/06/25 05:11:38;;;;;;;411.33;349.67;;;;;;;19.73;100.00;99106.31;5092466;28;20188;-80
2022/06/25 05:14:05;;;;;;;415.08;352.10;;;;;;;19.90;100.00;99110.88;5092075;28;20623;-81
2022/06/25 05:16:31;;;;;;;422.85;375.83;;;;;;;19.97;100.00;99102.91;5092827;28;20542;-81
2022/06/25 05:18:59;;;;;;;418.33;370.38;;;;;;;20.25;100.00;99102.69;5092350;28;20313;-80
2022/06/25 05:21:27;;;;;;;428.08;381.25;;;;;;;20.37;100.00;99099.53;5092730;28;20608;-81
2022/06/25 05:23:54;;;;;;;431.67;384.98;;;;;;;20.49;100.00;99100.09;5093567;28;20668;-81
2022/06/25 05:26:20;;;;;;;423.05;376.33;;;;;;;20.73;100.00;99095.72;5092761;28;20515;-79
2022/06/25 05:28:47;;;;;;;444.00;396.30;;;;;;;20.83;100.00;99094.56;5092189;28;20274;-80
2022/06/25 05:31:13;;;;;;;443.23;395.80;;;;;;;20.53;100.00;99100.59;5092152;28;20642;-81
2022/06/25 05:33:41;;;;;;;462.15;414.50;;;;;;;20.50;100.00;99100.94;5092149;28;20275;-80
2022/06/25 05:36:07;;;;;;;434.58;387.75;;;;;;;20.52;100.00;99098.88;5092449;28;20271;-80
2022/06/25 05:38:35;;;;;;;443.63;396.80;;;;;;;20.66;100.00;99100.16;5092269;28;20203;-80
2022/06/25 05:41:07;;;;;;;466.77;419.23;;;;;;;20.94;100.00;99098.88;5091814;28;20537;-81
2022/06/25 05:43:34;;;;;;;447.83;400.77;;;;;;;20.77;100.00;99097.13;5091870;28;20184;-80
2022/06/25 05:46:01;;;;;;;431.95;385.13;;;;;;;20.94;100.00;99104.34;5092216;28;20232;-80
2022/06/25 05:48:28;;;;;;;444.10;397.02;;;;;;;20.91;100.00;99093.72;5092040;28;20187;-80
2022/06/25 05:50:54;;;;;;;455.40;408.10;;;;;;;20.78;100.00;99102.44;5091908;28;20595;-81
2022/06/25 05:53:21;;;;;;;451.00;403.92;;;;;;;20.91;100.00;99101.94;5092140;28;20275;-81
2022/06/25 05:55:49;;;;;;;474.80;426.70;;;;;;;20.64;100.00;99103.06;5091050;28;20777;-81
2022/06/25 05:58:16;;;;;;;451.02;402.83;;;;;;;20.56;100.00;99106.63;5090623;28;20271;-81
2022/06/25 06:00:43;;;;;;;434.85;388.08;;;;;;;20.46;100.00;99111.31;5090240;28;20195;-81
2022/06/25 06:03:09;;;;;;;460.58;413.23;;;;;;;20.30;100.00;99105.78;5091778;28;20248;-80
2022/06/25 06:05:38;;;;;;;453.20;406.20;;;;;;;20.54;100.00;99107.78;5091711;28;20283;-81
2022/06/25 06:08:06;;;;;;;438.60;392.10;;;;;;;20.44;100.00;99102.44;5091899;28;20188;-81
2022/06/25 06:10:32;;;;;;;436.90;389.88;;;;;;;20.53;100.00;99104.19;5091539;28;20279;-81
2022/06/25 06:13:00;;;;;;;450.13;403.02;;;;;;;20.85;100.00;99101.75;5091561;28;20275;-80
2022/06/25 06:15:27;;;;;;;427.52;380.98;;;;;;;21.07;100.00;99108.47;5091363;28;20223;-80
2022/06/25 06:17:54;;;;;;;419.90;373.60;;;;;;;21.04;100.00;99109.66;5087997;28;20642;-81
2022/06/25 06:20:20;;;;;;;448.65;401.67;;;;;;;21.00;100.00;99111.88;5091578;28;20688;-81
2022/06/25 06:22:47;;;;;;;448.83;401.58;;;;;;;20.95;100.00;99107.94;5089907;28;20275;-81
2022/06/25 06:25:14;;;;;;;443.58;396.23;;;;;;;20.60;100.00;99110.75;5091164;28;20641;-81
2022/06/25 06:27:40;;;;;;;429.08;382.30;;;;;;;20.38;100.00;99095.75;5091144;28;20198;-81
2022/06/25 06:30:10;;;;;;;446.05;399.35;;;;;;;20.77;100.00;99097.13;5091446;28;20278;-81
2022/06/25 06:32:37;;;;;;;418.27;371.63;;;;;;;20.92;100.00;99106.41;5091040;28;20188;-81
2022/06/25 06:35:04;;;;;;;438.30;390.85;;;;;;;21.07;100.00;99103.00;5091126;28;20665;-81
2022/06/25 06:37:31;;;;;;;429.77;383.60;;;;;;;21.20;100.00;99098.72;5090589;28;20597;-80
2022/06/25 06:39:58;;;;;;;459.20;411.45;;;;;;;21.41;100.00;99100.16;5091327;28;20515;-81
2022/06/25 06:42:25;;;;;;;454.27;407.20;;;;;;;21.12;100.00;99100.59;5090755;28;20200;-82
2022/06/25 06:44:51;;;;;;;432.35;386.20;;;;;;;20.82;100.00;99098.31;5091444;28;20571;-81
2022/06/25 06:47:19;;;;;;;456.17;409.02;;;;;;;21.00;100.00;99098.19;5090644;28;20291;-80
2022/06/25 06:49:46;;;;;;;438.20;391.90;;;;;;;21.08;100.00;99100.09;5091050;28;20227;-80
2022/06/25 06:52:13;;;;;;;434.83;388.50;;;;;;;21.06;100.00;99104.03;5090271;28;20286;-80
2022/06/25 06:54:40;;;;;;;438.27;391.80;;;;;;;21.26;100.00;99099.09;5090810;28;20678;-81
2022/06/25 06:57:07;;;;;;;443.88;397.13;;;;;;;20.98;100.00;99105.75;5088470;28;20196;-85
2022/06/25 06:59:34;;;;;;;451.30;404.55;;;;;;;20.95;100.00;99107.94;5084753;28;20666;-84
2022/06/25 07:02:00;;;;;;;424.42;378.42;;;;;;;20.88;100.00;99105.00;5090839;28;20206;-82
2022/06/25 07:04:28;;;;;;;452.52;405.60;;;;;;;21.24;100.00;99107.47;5090684;28;20283;-83
2022/06/25 07:06:55;;;;;;;440.33;393.17;;;;;;;21.43;100.00;99101.69;5088481;28;20275;-82
2022/06/25 07:09:22;;;;;;;460.27;413.02;;;;;;;21.58;100.00;99101.00;5090091;28;20192;-84
2022/06/25 07:11:49;;;;;;;450.30;403.25;;;;;;;21.94;97.41;99095.16;5091011;28;20673;-83
2022/06/25 07:14:15;;;;;;;459.88;412.77;;;;;;;22.09;95.42;99096.13;5090744;28;20275;-84
2022/06/25 07:16:42;;;;;;;496.73;448.60;;;;;;;22.40;91.67;99101.72;5090646;28;20223;-83
2022/06/25 07:19:10;;;;;;;467.63;420.33;;;;;;;22.53;86.59;99101.16;5090698;28;20275;-85
2022/06/25 07:21:39;;;;;;;491.98;443.85;;;;;;;22.79;84.23;99094.50;5090705;28;20188;-82
2022/06/25 07:24:06;;;;;;;485.98;437.88;;;;;;;23.04;84.89;99100.72;5090903;28;20294;-83
2022/06/25 07:26:33;;;;;;;520.80;472.05;;;;;;;23.21;83.51;99098.75;5090544;28;20276;-82
2022/06/25 07:29:00;;;;;;;520.83;471.90;;;;;;;22.69;84.30;99089.25;5090201;28;20230;-83
2022/06/25 07:31:28;;;;;;;498.80;450.52;;;;;;;22.69;83.16;99083.75;5089977;28;20184;-83
2022/06/25 07:33:54;;;;;;;500.02;451.88;;;;;;;22.49;83.81;99095.16;5093214;28;20188;-84
2022/06/25 07:36:21;;;;;;;511.90;463.30;;;;;;;22.14;88.31;99088.25;5094792;28;20310;-83
2022/06/25 07:38:49;;;;;;;491.67;443.90;;;;;;;22.30;86.90;99092.00;5094078;28;20275;-82
2022/06/25 07:41:16;;;;;;;488.92;441.13;;;;;;;22.50;87.38;99085.06;5094340;28;20274;-83
2022/06/25 07:43:42;;;;;;;486.13;438.40;;;;;;;23.04;82.61;99085.13;5094041;28;20294;-83
2022/06/25 07:46:09;;;;;;;499.73;451.70;;;;;;;23.24;81.03;99087.38;5093835;28;20604;-83
2022/06/25 07:48:36;;;;;;;509.75;461.10;;;;;;;23.57;78.54;99082.47;5094238;28;20287;-83
2022/06/25 07:53:48;;;;;;;529.35;480.42;;;;;;;24.18;67.61;99085.16;5094360;28;20188;-83
2022/06/25 07:56:15;;;;;;;534.57;485.47;;;;;;;23.82;75.00;99094.13;5094012;28;20239;-84
2022/06/25 07:58:41;;;;;;;566.23;516.70;;;;;;;24.16;69.42;99073.50;5094283;28;20422;-83
2022/06/25 08:01:08;;;;;;;577.67;527.97;;;;;;;24.34;64.06;99071.22;5094379;28;21001;-83
2022/06/25 08:03:35;;;;;;;559.50;509.67;;;;;;;24.14;63.40;99070.91;5093418;28;20441;-84
2022/06/25 08:06:02;;;;;;;539.37;490.03;;;;;;;23.52;68.46;99068.44;5094102;28;20522;-82
2022/06/25 08:08:29;;;;;;;536.63;488.13;;;;;;;23.89;68.72;99072.25;5094376;28;20760;-82
2022/06/25 08:10:57;;;;;;;547.22;498.27;;;;;;;24.21;65.64;99060.00;5094024;28;20446;-83
2022/06/25 08:13:24;;;;;;;569.13;519.70;;;;;;;24.39;63.43;99056.03;5093465;28;20184;-81
2022/06/25 08:15:51;;;;;;;576.20;526.50;;;;;;;24.05;64.35;99060.22;5094395;28;20500;-83
2022/06/25 08:18:18;;;;;;;578.80;528.93;;;;;;;24.31;62.69;99062.50;5095296;28;20791;-84
2022/06/25 08:20:45;;;;;;;594.90;544.63;;;;;;;24.32;63.39;99054.03;5095588;28;20515;-83
2022/06/25 08:23:12;;;;;;;586.27;536.40;;;;;;;24.40;64.51;99054.97;5095883;28;20458;-85
2022/06/25 08:25:39;;;;;;;591.83;541.73;;;;;;;24.22;65.33;99058.13;5095516;28;20437;-85
2022/06/25 08:28:07;;;;;;;602.30;552.03;;;;;;;23.89;66.88;99064.00;5094726;28;20482;-83
2022/06/25 08:30:33;;;;;;;551.97;502.70;;;;;;;23.88;67.08;99054.91;5095540;28;20844;-84
2022/06/25 08:33:01;;;;;;;563.87;514.37;;;;;;;23.98;66.53;99062.88;5094372;28;20477;-84
2022/06/25 08:35:27;;;;;;;598.87;548.90;;;;;;;23.78;68.03;99054.31;5095505;28;20510;-84
2022/06/25 08:37:55;;;;;;;585.93;535.93;;;;;;;24.13;67.15;99044.47;5095847;28;20438;-83
2022/06/25 08:40:22;;;;;;;578.57;528.70;;;;;;;24.25;67.04;99049.50;5094352;28;20481;-84
2022/06/25 08:42:49;;;;;;;591.03;540.87;;;;;;;24.18;68.22;99041.16;5094900;28;20444;-84
2022/06/25 08:45:17;;;;;;;594.67;544.17;;;;;;;24.58;67.23;99051.84;5094936;28;20525;-84
2022/06/25 08:47:46;;;;;;;609.70;558.83;;;;;;;24.98;63.16;99054.00;5096840;28;20911;-83
2022/06/25 08:50:15;;;;;;;613.83;563.27;;;;;;;24.83;64.96;99052.34;5114772;28;20457;-84
2022/06/25 08:52:46;;;;;;;623.00;572.00;;;;;;;25.22;62.96;99049.22;5113495;28;20445;-82
2022/06/25 08:55:26;;;;;;;616.57;565.87;;;;;;;25.43;61.91;99050.25;5107874;28;20569;-83
2022/06/25 08:57:54;;;;;;;644.63;593.33;;;;;;;25.62;61.38;99056.97;5093072;28;20907;-84
2022/06/25 09:00:22;;;;;;;660.63;609.33;;;;;;;25.70;60.30;99057.69;5093229;28;20516;-83
2022/06/25 09:02:49;;;;;;;627.67;576.93;;;;;;;26.25;57.41;99059.78;5094675;28;20445;-84
2022/06/25 09:05:15;;;;;;;622.90;572.33;;;;;;;26.10;55.93;99051.66;5094451;28;20509;-83
2022/06/25 09:07:54;;;;;;;633.20;582.10;;;;;;;25.93;56.83;99054.69;5094322;28;20570;-84
2022/06/25 09:10:21;;;;;;;617.47;566.77;;;;;;;25.95;55.77;99060.00;5080521;28;20457;-84
2022/06/25 09:12:50;;;;;;;620.63;569.97;;;;;;;25.92;55.17;99055.75;5073445;28;20521;-83
2022/06/25 09:15:19;;;;;;;634.13;583.40;;;;;;;26.32;53.51;99063.41;5073120;28;20570;-84
2022/06/25 09:17:49;;;;;;;625.23;574.33;;;;;;;25.04;58.13;99057.06;5082652;28;20437;-84
2022/06/25 09:20:16;;;;;;;647.57;595.80;;;;;;;25.57;56.37;99052.94;5092882;28;20457;-84
2022/06/25 09:22:53;;;;;;;649.27;598.20;;;;;;;26.11;55.57;99053.34;5093782;28;20464;-83
2022/06/25 09:25:24;;;;;;;658.27;606.73;;;;;;;26.99;54.08;99059.91;5093175;28;20418;-83
2022/06/25 09:27:51;;;;;;;682.07;629.77;;;;;;;27.17;53.22;99053.78;5092711;28;20511;-82
2022/06/25 09:30:20;;;;;;;687.67;635.57;;;;;;;26.99;53.60;99050.78;5091912;28;20524;-84
2022/06/25 09:32:50;;;;;;;684.10;632.33;;;;;;;26.77;53.73;99053.69;5091618;28;20549;-83
2022/06/25 09:35:30;;;;;;;695.43;643.33;;;;;;;26.58;53.95;99052.53;5092105;28;20434;-83
2022/06/25 09:38:02;;;;;;;686.97;635.27;;;;;;;26.71;53.61;99051.75;5091383;28;20430;-84
2022/06/25 09:40:29;;;;;;;691.00;639.07;;;;;;;26.52;54.55;99049.72;5092467;28;20513;-83
2022/06/25 09:42:57;;;;;;;701.57;649.20;;;;;;;26.56;55.35;99049.13;5092434;28;20439;-84
2022/06/25 09:45:24;;;;;;;692.33;640.47;;;;;;;26.90;50.91;99046.50;5092556;28;20506;-84
2022/06/25 09:47:55;;;;;;;685.10;633.00;;;;;;;27.11;49.72;99046.31;5092092;28;20524;-83
2022/06/25 09:50:22;;;;;;;684.50;632.80;;;;;;;27.09;50.51;99034.66;5091748;28;20441;-82
2022/06/25 09:52:54;;;;;;;700.90;648.87;;;;;;;27.77;49.68;99047.44;5092023;28;20430;-83
2022/06/25 09:55:23;;;;;;;693.83;642.13;;;;;;;27.73;49.45;99046.19;5091958;28;20478;-83
2022/06/25 09:57:50;;;;;;;702.67;650.40;;;;;;;27.53;49.93;99052.56;5091781;28;20543;-83
2022/06/25 10:00:18;;;;;;;695.60;643.73;;;;;;;27.33;50.60;99035.97;5092129;28;20458;-83
2022/06/25 10:02:48;;;;;;;676.60;624.93;;;;;;;27.04;50.92;99038.03;5092203;28;20955;-84
2022/06/25 10:05:17;;;;;;;710.13;657.97;;;;;;;27.30;51.78;99044.69;5091571;28;20442;-84
2022/06/25 10:08:01;;;;;;;693.37;641.70;;;;;;;27.44;51.20;99048.31;5091485;28;20446;-83
2022/06/25 10:10:30;;;;;;;678.13;626.87;;;;;;;27.16;52.15;99041.03;5091937;28;20430;-84
2022/06/25 10:12:57;;;;;;;698.00;645.57;;;;;;;27.20;50.98;99036.81;5079116;28;20944;-86
2022/06/25 10:15:25;;;;;;;690.43;638.87;;;;;;;27.12;51.54;99045.28;5070900;28;20447;-84
2022/06/25 10:17:53;;;;;;;706.93;654.97;;;;;;;26.73;51.23;99030.31;5071086;28;20433;-85
2022/06/25 10:20:23;;;;;;;696.00;644.17;;;;;;;26.90;50.91;99025.25;5087673;28;20454;-84
2022/06/25 10:22:51;;;;;;;687.80;635.73;;;;;;;26.87;51.72;99024.81;5091013;28;20430;-82
2022/06/25 10:25:21;;;;;;;694.00;642.03;;;;;;;27.42;49.55;99020.88;5089235;28;21368;-83
2022/06/25 10:27:50;;;;;;;700.33;648.23;;;;;;;27.58;49.38;99016.00;5091537;28;20446;-84
2022/06/25 10:30:35;;;;;;;711.87;659.77;;;;;;;27.74;48.71;99023.84;5091426;28;20456;-85
2022/06/25 10:33:03;;;;;;;704.03;651.87;;;;;;;27.59;49.36;99026.84;5091364;28;20453;-84
2022/06/25 10:35:33;;;;;;;711.07;658.90;;;;;;;27.63;48.33;99025.38;5090877;28;20522;-84
2022/06/25 10:38:03;;;;;;;711.97;659.87;;;;;;;27.23;49.15;99016.22;5088598;28;20982;-82
2022/06/25 10:40:30;;;;;;;725.30;672.10;;;;;;;26.91;49.64;99015.03;5089511;28;20808;-84
2022/06/25 10:42:59;;;;;;;712.37;659.53;;;;;;;26.58;51.62;99000.09;5091140;28;20444;-84
2022/06/25 10:45:50;;;;;;;691.33;639.77;;;;;;;26.67;51.62;99003.53;5090200;28;20488;-83
2022/06/25 10:48:19;;;;;;;709.33;657.07;;;;;;;27.35;49.24;98994.31;5090852;28;20465;-82
2022/06/25 10:50:52;;;;;;;688.60;636.90;;;;;;;27.74;47.19;99004.47;5090491;28;20454;-82
2022/06/25 10:53:22;;;;;;;674.90;623.60;;;;;;;27.73;46.65;99001.94;5089071;28;20887;-82
2022/06/25 10:56:01;;;;;;;715.07;662.73;;;;;;;27.48;46.88;99001.75;5090571;28;20484;-85
2022/06/25 10:58:41;;;;;;;687.13;635.57;;;;;;;27.57;46.94;98995.78;5091390;28;20512;-83
2022/06/25 11:01:29;;;;;;;685.43;633.83;;;;;;;27.87;46.25;98984.28;5090516;28;20430;-82
2022/06/25 11:03:58;;;;;;;714.73;662.33;;;;;;;28.20;45.58;98989.72;5091124;28;20892;-85
2022/06/25 11:06:29;;;;;;;706.80;654.77;;;;;;;27.87;45.08;98995.34;5090826;28;20446;-82
2022/06/25 11:09:04;;;;;;;718.57;666.27;;;;;;;27.79;45.07;98988.09;5094448;28;20420;-85